createdAt,value
2022-12-29T00:00:46.057Z,994.66
2022-12-29T00:01:45.983Z,994.58
2022-12-29T00:02:46.189Z,994.59
2022-12-29T00:03:46.045Z,994.62
2022-12-29T00:04:45.965Z,994.61
2022-12-29T00:05:45.941Z,994.58
2022-12-29T00:06:45.938Z,994.48
2022-12-29T00:07:45.937Z,994.49
2022-12-29T00:08:45.919Z,994.53
2022-12-29T00:09:45.911Z,994.57
2022-12-29T00:10:45.885Z,994.51
2022-12-29T00:11:45.883Z,994.42
2022-12-29T00:12:45.872Z,994.42
2022-12-29T00:13:45.876Z,994.36
2022-12-29T00:14:45.870Z,994.37
2022-12-29T00:15:45.936Z,994.30
2022-12-29T00:16:45.854Z,994.21
2022-12-29T00:17:45.816Z,994.27
2022-12-29T00:18:45.805Z,994.26
2022-12-29T00:19:45.797Z,994.24
2022-12-29T00:20:45.790Z,994.22
2022-12-29T00:21:45.770Z,994.10
2022-12-29T00:22:45.749Z,994.23
2022-12-29T00:23:45.756Z,994.19
2022-12-29T00:24:45.754Z,994.24
2022-12-29T00:25:45.728Z,994.31
2022-12-29T00:26:45.745Z,994.07
2022-12-29T00:27:45.713Z,994.12
2022-12-29T00:28:45.703Z,994.14
2022-12-29T00:29:45.696Z,994.05
2022-12-29T00:30:45.685Z,994.02
2022-12-29T00:31:45.668Z,994.08
2022-12-29T00:32:45.659Z,994.15
2022-12-29T00:33:45.640Z,994.11
2022-12-29T00:34:45.638Z,994.13
2022-12-29T00:35:45.614Z,994.23
2022-12-29T00:36:45.626Z,994.22
2022-12-29T00:37:45.594Z,994.08
2022-12-29T00:38:45.580Z,994.13
2022-12-29T00:39:45.593Z,994.11
2022-12-29T00:40:45.562Z,994.21
2022-12-29T00:41:45.542Z,994.18
2022-12-29T00:42:45.577Z,994.10
2022-12-29T00:43:45.535Z,994.15
2022-12-29T00:44:45.519Z,994.13
2022-12-29T00:45:45.532Z,994.03
2022-12-29T00:46:45.616Z,993.98
2022-12-29T00:47:45.478Z,994.04
2022-12-29T00:48:45.495Z,994.01
2022-12-29T00:49:45.499Z,994.11
2022-12-29T00:50:45.467Z,994.10
2022-12-29T00:51:45.441Z,994.08
2022-12-29T00:52:45.444Z,994.09
2022-12-29T00:53:45.418Z,994.08
2022-12-29T00:54:45.437Z,994.02
2022-12-29T00:55:45.414Z,993.96
2022-12-29T00:56:45.434Z,994.00
2022-12-29T00:57:45.400Z,994.01
2022-12-29T00:58:45.358Z,993.97
2022-12-29T00:59:45.368Z,994.01
2022-12-29T01:00:45.408Z,993.90
2022-12-29T01:01:45.443Z,993.84
2022-12-29T01:02:45.467Z,993.88
2022-12-29T01:03:45.311Z,993.91
2022-12-29T01:04:45.295Z,993.95
2022-12-29T01:05:45.277Z,993.94
2022-12-29T01:06:45.281Z,993.88
2022-12-29T01:07:45.283Z,993.87
2022-12-29T01:08:45.255Z,993.66
2022-12-29T01:09:45.232Z,993.79
2022-12-29T01:10:45.257Z,993.89
2022-12-29T01:11:45.222Z,993.81
2022-12-29T01:12:45.206Z,993.83
2022-12-29T01:13:45.223Z,993.84
2022-12-29T01:14:45.187Z,993.78
2022-12-29T01:15:45.165Z,993.73
2022-12-29T01:16:45.267Z,993.77
2022-12-29T01:17:45.142Z,993.80
2022-12-29T01:18:45.182Z,993.73
2022-12-29T01:19:45.145Z,993.82
2022-12-29T01:20:45.116Z,993.72
2022-12-29T01:21:45.099Z,993.72
2022-12-29T01:22:45.100Z,993.49
2022-12-29T01:23:45.113Z,993.74
2022-12-29T01:24:45.088Z,993.72
2022-12-29T01:25:45.052Z,993.79
2022-12-29T01:26:45.055Z,993.79
2022-12-29T01:27:45.040Z,993.67
2022-12-29T01:28:45.045Z,993.73
2022-12-29T01:29:45.029Z,993.73
2022-12-29T01:30:45.019Z,993.70
2022-12-29T01:31:45.102Z,993.77
2022-12-29T01:32:44.982Z,993.78
2022-12-29T01:33:45.003Z,993.81
2022-12-29T01:34:45.009Z,993.77
2022-12-29T01:35:44.966Z,993.67
2022-12-29T01:36:44.958Z,993.82
2022-12-29T01:37:44.921Z,993.66
2022-12-29T01:38:44.916Z,993.65
2022-12-29T01:39:44.904Z,993.64
2022-12-29T01:40:44.904Z,993.61
2022-12-29T01:41:44.884Z,993.61
2022-12-29T01:42:44.867Z,993.57
2022-12-29T01:43:44.854Z,993.60
2022-12-29T01:44:44.857Z,993.52
2022-12-29T01:45:44.870Z,993.51
2022-12-29T01:46:44.828Z,993.55
2022-12-29T01:47:44.814Z,993.50
2022-12-29T01:48:44.809Z,993.45
2022-12-29T01:49:44.810Z,993.40
2022-12-29T01:50:44.821Z,993.37
2022-12-29T01:51:44.771Z,993.41
2022-12-29T01:52:44.776Z,993.35
2022-12-29T01:53:44.755Z,993.40
2022-12-29T01:54:44.749Z,993.33
2022-12-29T01:55:44.731Z,993.17
2022-12-29T01:56:44.722Z,993.30
2022-12-29T01:57:44.711Z,993.33
2022-12-29T01:58:44.699Z,993.45
2022-12-29T01:59:44.694Z,993.41
2022-12-29T02:00:44.730Z,993.38
2022-12-29T02:01:44.775Z,993.36
2022-12-29T02:02:44.756Z,993.28
2022-12-29T02:03:44.699Z,993.34
2022-12-29T02:04:44.637Z,993.32
2022-12-29T02:05:44.634Z,993.27
2022-12-29T02:06:44.654Z,993.33
2022-12-29T02:07:44.589Z,993.37
2022-12-29T02:08:44.583Z,993.39
2022-12-29T02:09:44.579Z,993.43
2022-12-29T02:10:44.598Z,993.32
2022-12-29T02:11:44.554Z,993.29
2022-12-29T02:12:44.552Z,993.26
2022-12-29T02:13:44.522Z,993.32
2022-12-29T02:14:44.520Z,993.29
2022-12-29T02:15:44.503Z,993.17
2022-12-29T02:16:44.610Z,993.12
2022-12-29T02:17:44.501Z,993.18
2022-12-29T02:18:44.476Z,993.16
2022-12-29T02:19:44.463Z,993.29
2022-12-29T02:20:44.447Z,993.30
2022-12-29T02:21:44.460Z,993.17
2022-12-29T02:22:44.455Z,993.21
2022-12-29T02:23:44.415Z,993.04
2022-12-29T02:24:44.402Z,993.12
2022-12-29T02:25:44.417Z,993.12
2022-12-29T02:26:44.403Z,993.14
2022-12-29T02:27:44.376Z,993.15
2022-12-29T02:28:44.378Z,993.10
2022-12-29T02:29:44.367Z,993.13
2022-12-29T02:30:44.339Z,993.17
2022-12-29T02:31:44.426Z,993.07
2022-12-29T02:32:44.329Z,993.01
2022-12-29T02:33:44.306Z,992.96
2022-12-29T02:34:44.298Z,993.01
2022-12-29T02:35:44.300Z,993.12
2022-12-29T02:36:44.293Z,993.13
2022-12-29T02:37:44.259Z,993.09
2022-12-29T02:38:44.307Z,993.03
2022-12-29T02:39:44.253Z,993.03
2022-12-29T02:40:44.222Z,993.08
2022-12-29T02:41:44.220Z,993.07
2022-12-29T02:42:44.227Z,993.14
2022-12-29T02:43:44.190Z,993.20
2022-12-29T02:44:44.180Z,993.13
2022-12-29T02:45:44.243Z,993.08
2022-12-29T02:46:44.157Z,993.03
2022-12-29T02:47:44.160Z,993.12
2022-12-29T02:48:44.171Z,993.11
2022-12-29T02:49:44.132Z,993.05
2022-12-29T02:50:44.163Z,993.17
2022-12-29T02:51:44.129Z,993.07
2022-12-29T02:52:44.094Z,993.03
2022-12-29T02:53:44.093Z,993.08
2022-12-29T02:54:44.166Z,992.96
2022-12-29T02:55:44.052Z,993.02
2022-12-29T02:56:44.064Z,992.94
2022-12-29T02:57:44.033Z,993.00
2022-12-29T02:58:44.043Z,992.92
2022-12-29T02:59:44.035Z,993.03
2022-12-29T03:00:44.061Z,992.99
2022-12-29T03:01:44.119Z,992.87
2022-12-29T03:02:44.126Z,992.98
2022-12-29T03:03:43.975Z,992.92
2022-12-29T03:04:43.998Z,993.02
2022-12-29T03:05:43.948Z,993.09
2022-12-29T03:06:43.973Z,993.01
2022-12-29T03:07:43.925Z,992.87
2022-12-29T03:08:43.915Z,992.94
2022-12-29T03:09:43.905Z,992.86
2022-12-29T03:10:43.922Z,992.82
2022-12-29T03:11:43.884Z,992.79
2022-12-29T03:12:43.866Z,992.73
2022-12-29T03:13:43.853Z,992.74
2022-12-29T03:14:43.877Z,992.71
2022-12-29T03:15:43.834Z,992.76
2022-12-29T03:16:43.904Z,992.72
2022-12-29T03:17:43.827Z,992.76
2022-12-29T03:18:43.835Z,992.68
2022-12-29T03:19:43.812Z,992.76
2022-12-29T03:20:43.786Z,992.73
2022-12-29T03:21:43.773Z,992.72
2022-12-29T03:22:43.772Z,992.82
2022-12-29T03:23:43.748Z,992.74
2022-12-29T03:24:43.748Z,992.70
2022-12-29T03:25:43.739Z,992.71
2022-12-29T03:26:43.741Z,992.62
2022-12-29T03:27:43.714Z,992.61
2022-12-29T03:28:43.694Z,992.53
2022-12-29T03:29:43.675Z,992.55
2022-12-29T03:30:43.735Z,992.59
2022-12-29T03:31:43.682Z,992.57
2022-12-29T03:32:43.646Z,992.46
2022-12-29T03:33:43.641Z,992.51
2022-12-29T03:34:43.655Z,992.62
2022-12-29T03:35:43.624Z,992.56
2022-12-29T03:36:43.636Z,992.49
2022-12-29T03:37:43.609Z,992.54
2022-12-29T03:38:43.599Z,992.50
2022-12-29T03:39:43.611Z,992.56
2022-12-29T03:40:43.579Z,992.54
2022-12-29T03:41:43.575Z,992.54
2022-12-29T03:42:43.566Z,992.56
2022-12-29T03:43:43.525Z,992.57
2022-12-29T03:44:43.534Z,992.54
2022-12-29T03:45:43.591Z,992.61
2022-12-29T03:46:43.660Z,992.46
2022-12-29T03:47:43.499Z,992.58
2022-12-29T03:48:43.496Z,992.50
2022-12-29T03:49:43.482Z,992.53
2022-12-29T03:50:43.461Z,992.38
2022-12-29T03:51:43.447Z,992.55
2022-12-29T03:52:43.433Z,992.40
2022-12-29T03:53:43.419Z,992.45
2022-12-29T03:54:43.441Z,992.50
2022-12-29T03:55:43.392Z,992.52
2022-12-29T03:56:43.391Z,992.51
2022-12-29T03:57:43.388Z,992.55
2022-12-29T03:58:43.379Z,992.54
2022-12-29T03:59:43.355Z,992.52
2022-12-29T04:00:43.354Z,992.49
2022-12-29T04:01:43.534Z,992.47
2022-12-29T04:02:43.531Z,992.61
2022-12-29T04:03:43.351Z,992.52
2022-12-29T04:04:43.309Z,992.61
2022-12-29T04:05:43.297Z,992.54
2022-12-29T04:06:43.279Z,992.55
2022-12-29T04:07:43.275Z,992.60
2022-12-29T04:08:43.253Z,992.56
2022-12-29T04:09:43.251Z,992.53
2022-12-29T04:10:43.239Z,992.55
2022-12-29T04:11:43.230Z,992.52
2022-12-29T04:12:43.213Z,992.60
2022-12-29T04:13:43.209Z,992.56
2022-12-29T04:14:43.207Z,992.52
2022-12-29T04:15:43.264Z,992.50
2022-12-29T04:16:43.173Z,992.56
2022-12-29T04:17:43.181Z,992.59
2022-12-29T04:18:43.144Z,992.54
2022-12-29T04:19:43.129Z,992.59
2022-12-29T04:20:43.139Z,992.58
2022-12-29T04:21:43.137Z,992.62
2022-12-29T04:22:43.122Z,992.57
2022-12-29T04:23:43.120Z,992.58
2022-12-29T04:24:43.082Z,992.57
2022-12-29T04:25:43.072Z,992.45
2022-12-29T04:26:43.073Z,992.51
2022-12-29T04:27:43.093Z,992.43
2022-12-29T04:28:43.050Z,992.42
2022-12-29T04:29:43.042Z,992.45
2022-12-29T04:30:43.029Z,992.48
2022-12-29T04:31:43.044Z,992.50
2022-12-29T04:32:42.991Z,992.55
2022-12-29T04:33:42.977Z,992.55
2022-12-29T04:34:42.992Z,992.52
2022-12-29T04:35:42.966Z,992.58
2022-12-29T04:36:42.955Z,992.52
2022-12-29T04:37:42.930Z,992.58
2022-12-29T04:38:42.920Z,992.54
2022-12-29T04:39:42.914Z,992.56
2022-12-29T04:40:42.917Z,992.57
2022-12-29T04:41:42.905Z,992.56
2022-12-29T04:42:42.880Z,992.58
2022-12-29T04:43:42.857Z,992.61
2022-12-29T04:44:45.216Z,992.70
2022-12-29T04:45:42.883Z,992.53
2022-12-29T04:46:42.910Z,992.52
2022-12-29T04:47:42.830Z,992.44
2022-12-29T04:48:42.815Z,992.45
2022-12-29T04:49:42.810Z,992.44
2022-12-29T04:50:42.795Z,992.46
2022-12-29T04:51:42.798Z,992.39
2022-12-29T04:52:42.829Z,992.44
2022-12-29T04:53:42.755Z,992.43
2022-12-29T04:54:42.742Z,992.47
2022-12-29T04:55:42.739Z,992.47
2022-12-29T04:56:42.735Z,992.49
2022-12-29T04:57:42.758Z,992.47
2022-12-29T04:58:42.708Z,992.38
2022-12-29T04:59:42.694Z,992.46
2022-12-29T05:00:42.676Z,992.44
2022-12-29T05:01:42.840Z,992.37
2022-12-29T05:02:42.989Z,992.43
2022-12-29T05:03:42.693Z,992.41
2022-12-29T05:04:42.629Z,992.47
2022-12-29T05:05:42.620Z,992.54
2022-12-29T05:06:42.630Z,992.50
2022-12-29T05:07:42.601Z,992.55
2022-12-29T05:08:42.591Z,992.63
2022-12-29T05:09:42.592Z,992.51
2022-12-29T05:10:42.595Z,992.63
2022-12-29T05:11:42.576Z,992.63
2022-12-29T05:12:42.566Z,992.73
2022-12-29T05:13:42.544Z,992.64
2022-12-29T05:14:42.532Z,992.61
2022-12-29T05:15:42.570Z,992.55
2022-12-29T05:16:42.591Z,992.58
2022-12-29T05:17:42.502Z,992.56
2022-12-29T05:18:42.507Z,992.75
2022-12-29T05:19:42.471Z,992.68
2022-12-29T05:20:42.453Z,992.73
2022-12-29T05:21:42.452Z,992.72
2022-12-29T05:22:42.453Z,992.69
2022-12-29T05:23:42.434Z,992.70
2022-12-29T05:24:42.443Z,992.71
2022-12-29T05:25:42.411Z,992.80
2022-12-29T05:26:42.412Z,992.84
2022-12-29T05:27:42.381Z,992.87
2022-12-29T05:28:42.372Z,993.03
2022-12-29T05:29:42.374Z,993.07
2022-12-29T05:30:42.369Z,993.04
2022-12-29T05:31:42.419Z,993.04
2022-12-29T05:32:42.324Z,993.00
2022-12-29T05:33:42.328Z,992.95
2022-12-29T05:34:42.332Z,992.93
2022-12-29T05:35:42.290Z,992.76
2022-12-29T05:36:42.292Z,992.67
2022-12-29T05:37:42.270Z,992.75
2022-12-29T05:38:42.277Z,992.79
2022-12-29T05:39:42.249Z,992.63
2022-12-29T05:40:42.244Z,992.61
2022-12-29T05:41:42.251Z,992.67
2022-12-29T05:42:42.213Z,992.75
2022-12-29T05:43:42.208Z,992.68
2022-12-29T05:44:42.193Z,992.66
2022-12-29T05:45:42.198Z,992.76
2022-12-29T05:46:42.271Z,992.84
2022-12-29T05:47:42.161Z,992.80
2022-12-29T05:48:42.140Z,992.80
2022-12-29T05:49:42.129Z,992.81
2022-12-29T05:50:42.140Z,992.86
2022-12-29T05:51:42.125Z,992.87
2022-12-29T05:52:42.132Z,992.80
2022-12-29T05:53:42.108Z,992.82
2022-12-29T05:54:42.077Z,992.86
2022-12-29T05:55:46.703Z,992.85
2022-12-29T05:56:43.052Z,993.00
2022-12-29T05:57:42.042Z,992.86
2022-12-29T05:58:42.034Z,993.04
2022-12-29T05:59:42.029Z,992.97
2022-12-29T06:00:42.039Z,992.98
2022-12-29T06:01:42.146Z,993.01
2022-12-29T06:02:42.245Z,993.02
2022-12-29T06:03:47.995Z,993.01
2022-12-29T06:04:42.973Z,993.01
2022-12-29T06:05:41.957Z,993.11
2022-12-29T06:06:41.961Z,993.10
2022-12-29T06:07:41.949Z,993.18
2022-12-29T06:08:41.936Z,993.03
2022-12-29T06:09:41.920Z,993.13
2022-12-29T06:10:41.903Z,993.09
2022-12-29T06:11:41.909Z,993.09
2022-12-29T06:12:41.880Z,993.10
2022-12-29T06:13:41.875Z,993.15
2022-12-29T06:14:41.850Z,993.16
2022-12-29T06:15:41.845Z,993.18
2022-12-29T06:16:42.295Z,993.25
2022-12-29T06:17:41.830Z,993.30
2022-12-29T06:18:41.803Z,993.17
2022-12-29T06:19:41.800Z,993.16
2022-12-29T06:20:41.785Z,993.31
2022-12-29T06:21:41.790Z,993.23
2022-12-29T06:22:41.814Z,993.27
2022-12-29T06:23:41.748Z,993.31
2022-12-29T06:24:41.744Z,993.35
2022-12-29T06:25:41.750Z,993.19
2022-12-29T06:26:41.725Z,993.29
2022-12-29T06:27:41.708Z,993.28
2022-12-29T06:28:41.723Z,993.33
2022-12-29T06:29:41.764Z,993.52
2022-12-29T06:30:41.675Z,993.47
2022-12-29T06:31:41.721Z,993.33
2022-12-29T06:32:41.659Z,993.41
2022-12-29T06:33:41.647Z,993.57
2022-12-29T06:34:41.634Z,993.53
2022-12-29T06:35:41.623Z,993.54
2022-12-29T06:36:41.606Z,993.57
2022-12-29T06:37:41.649Z,993.54
2022-12-29T06:38:41.613Z,993.63
2022-12-29T06:39:41.577Z,993.65
2022-12-29T06:40:41.571Z,993.57
2022-12-29T06:41:41.573Z,993.60
2022-12-29T06:42:41.580Z,993.64
2022-12-29T06:43:41.576Z,993.58
2022-12-29T06:44:41.539Z,993.57
2022-12-29T06:45:41.714Z,993.60
2022-12-29T06:46:41.497Z,993.63
2022-12-29T06:47:41.488Z,993.67
2022-12-29T06:48:41.487Z,993.57
2022-12-29T06:49:41.469Z,993.60
2022-12-29T06:50:41.442Z,993.68
2022-12-29T06:51:41.451Z,993.56
2022-12-29T06:52:41.431Z,993.65
2022-12-29T06:53:41.427Z,993.61
2022-12-29T06:54:41.459Z,993.67
2022-12-29T06:55:41.400Z,993.58
2022-12-29T06:56:41.400Z,993.68
2022-12-29T06:57:41.380Z,993.65
2022-12-29T06:58:41.357Z,993.74
2022-12-29T06:59:41.351Z,993.82
2022-12-29T07:00:41.348Z,993.59
2022-12-29T07:01:41.436Z,993.80
2022-12-29T07:02:41.428Z,993.65
2022-12-29T07:03:41.320Z,993.65
2022-12-29T07:04:41.315Z,993.68
2022-12-29T07:05:41.292Z,993.70
2022-12-29T07:06:41.276Z,993.81
2022-12-29T07:07:41.268Z,993.77
2022-12-29T07:08:41.249Z,993.75
2022-12-29T07:09:41.268Z,993.90
2022-12-29T07:10:41.247Z,993.79
2022-12-29T07:11:41.236Z,993.86
2022-12-29T07:12:41.204Z,993.77
2022-12-29T07:13:41.204Z,993.76
2022-12-29T07:14:43.558Z,993.80
2022-12-29T07:15:41.226Z,993.81
2022-12-29T07:16:41.222Z,993.86
2022-12-29T07:17:41.154Z,993.93
2022-12-29T07:18:41.135Z,993.89
2022-12-29T07:19:41.131Z,993.92
2022-12-29T07:20:41.137Z,993.92
2022-12-29T07:21:47.755Z,993.91
2022-12-29T07:22:41.099Z,993.86
2022-12-29T07:23:41.109Z,993.92
2022-12-29T07:24:41.104Z,993.89
2022-12-29T07:25:41.059Z,993.81
2022-12-29T07:26:41.092Z,993.94
2022-12-29T07:27:41.041Z,993.91
2022-12-29T07:28:41.024Z,993.88
2022-12-29T07:29:41.031Z,993.85
2022-12-29T07:30:41.007Z,993.91
2022-12-29T07:31:41.088Z,993.91
2022-12-29T07:32:41.001Z,993.93
2022-12-29T07:33:40.972Z,993.87
2022-12-29T07:34:40.969Z,994.02
2022-12-29T07:35:40.956Z,993.96
2022-12-29T07:36:40.934Z,994.00
2022-12-29T07:37:40.938Z,994.01
2022-12-29T07:38:40.915Z,993.96
2022-12-29T07:39:40.909Z,993.92
2022-12-29T07:40:40.899Z,993.92
2022-12-29T07:41:40.884Z,993.90
2022-12-29T07:42:40.897Z,994.02
2022-12-29T07:43:40.877Z,993.92
2022-12-29T07:44:40.860Z,993.86
2022-12-29T07:45:40.902Z,993.98
2022-12-29T07:46:56.612Z,993.95
2022-12-29T07:47:41.819Z,993.91
2022-12-29T07:48:40.807Z,993.91
2022-12-29T07:49:40.796Z,993.93
2022-12-29T07:50:40.788Z,993.93
2022-12-29T07:51:40.796Z,993.90
2022-12-29T07:52:40.756Z,993.88
2022-12-29T07:53:40.754Z,993.94
2022-12-29T07:54:40.748Z,994.00
2022-12-29T07:55:40.728Z,993.94
2022-12-29T07:56:40.726Z,993.97
2022-12-29T07:57:40.705Z,994.08
2022-12-29T07:58:40.729Z,993.97
2022-12-29T07:59:40.716Z,994.10
2022-12-29T08:00:40.674Z,994.05
2022-12-29T08:01:40.829Z,994.06
2022-12-29T08:02:40.768Z,994.18
2022-12-29T08:03:40.678Z,994.13
2022-12-29T08:04:40.626Z,994.12
2022-12-29T08:05:40.651Z,994.09
2022-12-29T08:06:40.623Z,994.08
2022-12-29T08:07:40.616Z,994.19
2022-12-29T08:08:40.590Z,994.04
2022-12-29T08:09:40.589Z,994.17
2022-12-29T08:10:40.568Z,994.09
2022-12-29T08:11:40.562Z,994.25
2022-12-29T08:12:40.553Z,994.18
2022-12-29T08:13:40.523Z,994.19
2022-12-29T08:14:40.559Z,994.21
2022-12-29T08:15:40.575Z,994.19
2022-12-29T08:16:40.504Z,994.20
2022-12-29T08:17:40.509Z,994.16
2022-12-29T08:18:40.492Z,994.19
2022-12-29T08:19:40.466Z,994.25
2022-12-29T08:20:40.456Z,994.23
2022-12-29T08:21:40.464Z,994.18
2022-12-29T08:22:40.421Z,994.14
2022-12-29T08:23:40.420Z,994.09
2022-12-29T08:24:40.432Z,994.07
2022-12-29T08:25:40.387Z,994.22
2022-12-29T08:26:40.444Z,994.13
2022-12-29T08:27:40.374Z,994.15
2022-12-29T08:28:40.361Z,994.15
2022-12-29T08:29:40.345Z,994.20
2022-12-29T08:30:40.650Z,994.18
2022-12-29T08:31:40.376Z,994.21
2022-12-29T08:32:40.328Z,994.21
2022-12-29T08:33:40.311Z,994.22
2022-12-29T08:34:40.322Z,994.17
2022-12-29T08:35:40.276Z,994.20
2022-12-29T08:36:40.274Z,994.27
2022-12-29T08:37:40.261Z,994.22
2022-12-29T08:38:40.257Z,994.16
2022-12-29T08:39:40.253Z,994.26
2022-12-29T08:40:40.254Z,994.13
2022-12-29T08:41:40.218Z,994.28
2022-12-29T08:42:40.220Z,994.23
2022-12-29T08:43:40.196Z,994.42
2022-12-29T08:44:40.187Z,994.23
2022-12-29T08:45:40.183Z,994.42
2022-12-29T08:46:40.245Z,994.41
2022-12-29T08:47:40.156Z,994.31
2022-12-29T08:48:40.143Z,994.42
2022-12-29T08:49:40.126Z,994.44
2022-12-29T08:50:40.124Z,994.43
2022-12-29T08:51:40.121Z,994.43
2022-12-29T08:52:40.091Z,994.61
2022-12-29T08:53:40.075Z,994.76
2022-12-29T08:54:40.072Z,994.42
2022-12-29T08:55:40.057Z,994.39
2022-12-29T08:56:40.072Z,994.39
2022-12-29T08:57:40.046Z,994.38
2022-12-29T08:58:40.051Z,994.70
2022-12-29T08:59:40.008Z,994.40
2022-12-29T09:00:40.030Z,994.62
2022-12-29T09:01:40.137Z,994.75
2022-12-29T09:02:40.219Z,994.76
2022-12-29T09:04:14.231Z,994.81
2022-12-29T09:04:41.019Z,994.68
2022-12-29T09:05:39.947Z,994.63
2022-12-29T09:06:40.822Z,994.58
2022-12-29T09:07:39.930Z,994.65
2022-12-29T09:08:39.920Z,994.61
2022-12-29T09:09:39.896Z,994.68
2022-12-29T09:10:39.889Z,994.77
2022-12-29T09:11:39.884Z,994.30
2022-12-29T09:12:39.907Z,994.31
2022-12-29T09:13:39.858Z,994.36
2022-12-29T09:14:39.845Z,994.48
2022-12-29T09:15:39.936Z,994.67
2022-12-29T09:16:39.915Z,994.88
2022-12-29T09:17:39.810Z,994.51
2022-12-29T09:18:39.847Z,994.42
2022-12-29T09:19:39.798Z,994.48
2022-12-29T09:20:39.790Z,994.47
2022-12-29T09:21:39.782Z,994.46
2022-12-29T09:22:39.761Z,994.49
2022-12-29T09:23:39.744Z,994.52
2022-12-29T09:24:39.770Z,994.52
2022-12-29T09:25:39.728Z,994.50
2022-12-29T09:26:46.693Z,994.60
2022-12-29T09:27:40.710Z,994.61
2022-12-29T09:28:39.702Z,994.39
2022-12-29T09:29:39.683Z,994.49
2022-12-29T09:30:39.676Z,994.47
2022-12-29T09:31:39.730Z,994.51
2022-12-29T09:32:44.781Z,994.54
2022-12-29T09:33:39.644Z,994.61
2022-12-29T09:34:39.661Z,994.64
2022-12-29T09:35:39.617Z,994.78
2022-12-29T09:36:39.615Z,994.50
2022-12-29T09:37:39.598Z,994.58
2022-12-29T09:38:39.593Z,994.58
2022-12-29T09:39:39.574Z,994.61
2022-12-29T09:40:39.571Z,994.49
2022-12-29T09:41:39.544Z,994.43
2022-12-29T09:42:39.548Z,994.50
2022-12-29T09:43:39.538Z,994.62
2022-12-29T09:44:39.512Z,994.64
2022-12-29T09:45:39.502Z,994.67
2022-12-29T09:46:39.610Z,994.68
2022-12-29T09:47:39.492Z,994.64
2022-12-29T09:48:39.476Z,994.63
2022-12-29T09:49:39.478Z,994.70
2022-12-29T09:50:39.470Z,994.70
2022-12-29T09:51:39.432Z,994.82
2022-12-29T09:52:39.433Z,994.82
2022-12-29T09:53:39.413Z,994.75
2022-12-29T09:54:39.413Z,994.66
2022-12-29T09:55:39.404Z,994.68
2022-12-29T09:56:39.379Z,994.65
2022-12-29T09:57:39.364Z,994.72
2022-12-29T09:58:39.372Z,994.68
2022-12-29T09:59:39.352Z,994.68
2022-12-29T10:00:39.390Z,994.73
2022-12-29T10:01:39.587Z,994.93
2022-12-29T10:02:39.454Z,994.77
2022-12-29T10:03:39.310Z,994.65
2022-12-29T10:04:39.301Z,994.64
2022-12-29T10:05:39.282Z,994.66
2022-12-29T10:06:56.584Z,994.62
2022-12-29T10:07:40.259Z,994.69
2022-12-29T10:08:39.250Z,994.66
2022-12-29T10:09:39.243Z,994.67
2022-12-29T10:10:39.231Z,994.62
2022-12-29T10:11:39.220Z,994.58
2022-12-29T10:12:39.223Z,994.67
2022-12-29T10:13:39.194Z,994.80
2022-12-29T10:14:39.196Z,994.83
2022-12-29T10:15:39.166Z,994.82
2022-12-29T10:16:39.233Z,994.72
2022-12-29T10:17:39.180Z,994.78
2022-12-29T10:18:39.136Z,994.83
2022-12-29T10:19:39.159Z,994.60
2022-12-29T10:20:39.118Z,994.71
2022-12-29T10:21:39.103Z,994.73
2022-12-29T10:22:39.117Z,994.76
2022-12-29T10:23:39.083Z,994.77
2022-12-29T10:24:39.086Z,994.74
2022-12-29T10:25:39.086Z,994.75
2022-12-29T10:26:39.053Z,994.66
2022-12-29T10:27:39.037Z,994.73
2022-12-29T10:28:39.030Z,994.74
2022-12-29T10:29:39.017Z,994.77
2022-12-29T10:30:39.032Z,994.74
2022-12-29T10:31:39.020Z,994.66
2022-12-29T10:32:39.001Z,994.75
2022-12-29T10:33:38.972Z,994.72
2022-12-29T10:34:38.967Z,994.68
2022-12-29T10:35:38.962Z,994.69
2022-12-29T10:36:38.941Z,994.68
2022-12-29T10:37:38.935Z,994.73
2022-12-29T10:38:38.933Z,994.72
2022-12-29T10:39:38.918Z,994.77
2022-12-29T10:40:38.906Z,994.74
2022-12-29T10:41:38.893Z,994.71
2022-12-29T10:42:38.897Z,994.83
2022-12-29T10:43:38.867Z,994.76
2022-12-29T10:44:38.851Z,994.74
2022-12-29T10:45:38.885Z,994.80
2022-12-29T10:46:38.825Z,994.75
2022-12-29T10:47:38.813Z,994.79
2022-12-29T10:48:38.815Z,994.70
2022-12-29T10:49:38.788Z,994.78
2022-12-29T10:50:38.777Z,994.79
2022-12-29T10:51:38.777Z,994.83
2022-12-29T10:52:38.759Z,994.79
2022-12-29T10:53:38.752Z,994.76
2022-12-29T10:54:38.767Z,994.84
2022-12-29T10:55:38.747Z,994.81
2022-12-29T10:56:38.711Z,994.92
2022-12-29T10:57:38.716Z,994.86
2022-12-29T10:58:38.700Z,994.76
2022-12-29T10:59:38.688Z,994.91
2022-12-29T11:00:38.738Z,994.79
2022-12-29T11:01:38.820Z,994.87
2022-12-29T11:02:38.802Z,994.76
2022-12-29T11:03:38.640Z,994.93
2022-12-29T11:04:38.625Z,994.93
2022-12-29T11:05:38.629Z,994.88
2022-12-29T11:06:38.611Z,994.90
2022-12-29T11:07:38.593Z,994.98
2022-12-29T11:08:38.600Z,994.94
2022-12-29T11:09:42.761Z,995.00
2022-12-29T11:10:38.586Z,994.93
2022-12-29T11:11:38.571Z,995.00
2022-12-29T11:12:38.541Z,994.98
2022-12-29T11:13:39.560Z,994.93
2022-12-29T11:14:38.532Z,995.03
2022-12-29T11:15:38.513Z,995.03
2022-12-29T11:16:38.601Z,995.07
2022-12-29T11:17:38.500Z,995.10
2022-12-29T11:18:38.476Z,995.04
2022-12-29T11:19:41.121Z,995.05
2022-12-29T11:20:38.467Z,995.05
2022-12-29T11:21:38.463Z,994.91
2022-12-29T11:22:38.434Z,994.93
2022-12-29T11:23:38.418Z,995.09
2022-12-29T11:24:38.413Z,995.05
2022-12-29T11:25:38.416Z,995.12
2022-12-29T11:26:38.420Z,995.23
2022-12-29T11:27:38.383Z,995.02
2022-12-29T11:28:38.362Z,995.10
2022-12-29T11:29:38.348Z,995.29
2022-12-29T11:30:38.363Z,995.16
2022-12-29T11:31:38.390Z,995.24
2022-12-29T11:32:38.318Z,995.40
2022-12-29T11:33:38.324Z,995.31
2022-12-29T11:34:38.301Z,995.28
2022-12-29T11:35:38.294Z,995.28
2022-12-29T11:36:38.273Z,995.29
2022-12-29T11:37:38.270Z,995.20
2022-12-29T11:38:38.254Z,995.35
2022-12-29T11:39:38.235Z,995.35
2022-12-29T11:40:38.227Z,995.40
2022-12-29T11:41:38.228Z,995.43
2022-12-29T11:42:38.244Z,995.45
2022-12-29T11:43:38.199Z,995.39
2022-12-29T11:44:38.199Z,995.41
2022-12-29T11:45:38.362Z,995.55
2022-12-29T11:46:38.199Z,995.42
2022-12-29T11:47:38.154Z,995.52
2022-12-29T11:48:38.142Z,995.52
2022-12-29T11:49:38.123Z,995.59
2022-12-29T11:50:38.117Z,995.61
2022-12-29T11:51:38.110Z,995.55
2022-12-29T11:52:38.092Z,995.63
2022-12-29T11:53:38.083Z,995.66
2022-12-29T11:54:38.075Z,995.70
2022-12-29T11:55:38.081Z,995.66
2022-12-29T11:56:40.826Z,995.67
2022-12-29T11:57:38.042Z,995.66
2022-12-29T11:58:38.064Z,995.70
2022-12-29T11:59:38.021Z,995.73
2022-12-29T12:00:38.019Z,995.71
2022-12-29T12:01:38.080Z,995.59
2022-12-29T12:02:42.878Z,995.79
2022-12-29T12:03:39.194Z,995.68
2022-12-29T12:04:37.964Z,995.73
2022-12-29T12:05:37.965Z,995.53
2022-12-29T12:06:37.947Z,995.72
2022-12-29T12:07:37.928Z,995.72
2022-12-29T12:08:37.914Z,995.77
2022-12-29T12:09:37.930Z,995.77
2022-12-29T12:10:37.899Z,995.76
2022-12-29T12:11:37.935Z,995.77
2022-12-29T12:12:37.888Z,995.83
2022-12-29T12:13:37.871Z,995.80
2022-12-29T12:14:37.872Z,995.76
2022-12-29T12:15:43.464Z,995.77
2022-12-29T12:16:38.840Z,995.73
2022-12-29T12:17:37.828Z,995.75
2022-12-29T12:18:37.815Z,995.82
2022-12-29T12:19:38.813Z,995.78
2022-12-29T12:20:37.805Z,995.81
2022-12-29T12:21:43.350Z,995.82
2022-12-29T12:22:38.794Z,995.81
2022-12-29T12:23:37.754Z,995.88
2022-12-29T12:24:37.766Z,995.80
2022-12-29T12:25:37.749Z,996.01
2022-12-29T12:26:37.725Z,995.87
2022-12-29T12:27:37.701Z,995.82
2022-12-29T12:28:37.701Z,995.94